No particular awareness of the weather is required.    There are no Weather-warnings


Meteo18 Weather Cam more information Meteo18 Weather Cam


Thunder radar more information blitzortung!


Rain radar more information rain snow radar


Visit our other weather sites:

Template documentation
and downloads

And another site



Weather Underground History page Text

Daily Summary for February 7, 2018 Units:  Both    English   Metric
« Previous Day
Next Day »
Daily Weekly Monthly Yearly Custom
  High: Low: Average:
Temperature: TemperatureC °F /  -17.8 °C -2.3 °F /  -19.1 °C -1.2 °F /  -18.4 °C
Dew Point: DewpointC °F /  -17.8 °C -3.3 °F /  -19.6 °C -2 °F /  -18.9 °C
Humidity: Humidity % 89 % 94 %
Wind Speed: WindSpeedKMH mph /  0 km/h - 1.1 mph /  1.8 km/h
Wind Gust: WindSpeedGustKMH mph /  0 km/h - -
Wind:- - SSE
Pressure: PressurehPa in /  0 hPa 1011.4 in /  34246 hPa -
Precipitation: 0.0 in /  0 mm    
Historical Graphs
 
 
Tabular Data for February 7, 2018
Time Temperature Dew Point Pressure Wind Wind Speed Wind Gust Humidity Rainfall Rate (Hourly)
TemperatureC °F /  -17.8 °C DewpointC °F /  -17.8 °C PressurehPa in /  0 hPa Calm     Humidity % HourlyPrecipMM in /  0 mm
00:04 -1.3 °F /  -18.5 °C -2.3 °F /  -19.1 °C 1011.4 in /  34246 hPa SW 3.2 mph /  5.1 km/h 4.8 mph /  7.7 km/h 93 % 0.0 in /  0 mm
00:08 -1.3 °F /  -18.5 °C -2.3 °F /  -19.1 °C 1011.4 in /  34246 hPa WSW 3.2 mph /  5.1 km/h 4.8 mph /  7.7 km/h 93 % 0.0 in /  0 mm
00:14 -1.4 °F /  -18.6 °C -2.5 °F /  -19.2 °C 1011.4 in /  34246 hPa WSW 1.4 mph /  2.3 km/h 3.2 mph /  5.1 km/h 92 % 0.0 in /  0 mm
00:20 -1.4 °F /  -18.6 °C -2.4 °F /  -19.1 °C 1011.4 in /  34246 hPa WSW 3.2 mph /  5.1 km/h 6.4 mph /  10.3 km/h 93 % 0.0 in /  0 mm
00:26 -1.4 °F /  -18.6 °C -2.4 °F /  -19.1 °C 1011.4 in /  34246 hPa WSW 4.7 mph /  7.6 km/h 8.0 mph /  12.9 km/h 93 % 0.0 in /  0 mm
00:32 -1.4 °F /  -18.6 °C -2.4 °F /  -19.1 °C 1011.4 in /  34246 hPa SW 3.2 mph /  5.1 km/h 11.3 mph /  18.2 km/h 93 % 0.0 in /  0 mm
00:38 -1.4 °F /  -18.6 °C -2.4 °F /  -19.1 °C 1011.4 in /  34246 hPa SW 1.4 mph /  2.3 km/h 4.8 mph /  7.7 km/h 93 % 0.0 in /  0 mm
00:44 -1.6 °F /  -18.7 °C -2.6 °F /  -19.2 °C 1011.7 in /  34256.2 hPa Calm   3.2 mph /  5.1 km/h 93 % 0.0 in /  0 mm
00:50 -2.1 °F /  -18.9 °C -3.2 °F /  -19.6 °C 1011.7 in /  34256.2 hPa Calm   1.6 mph /  2.6 km/h 92 % 0.0 in /  0 mm
00:56 -2.3 °F /  -19.1 °C -3.3 °F /  -19.6 °C 1011.7 in /  34256.2 hPa SSW 3.2 mph /  5.1 km/h 4.8 mph /  7.7 km/h 93 % 0.0 in /  0 mm
01:02 -2.3 °F /  -19.1 °C -3.1 °F /  -19.5 °C 1011.4 in /  34246 hPa SSW 3.2 mph /  5.1 km/h 4.8 mph /  7.7 km/h 94 % 0.0 in /  0 mm
01:08 -2.2 °F /  -19 °C -2.9 °F /  -19.4 °C 1011.4 in /  34246 hPa WSW 6.4 mph /  10.3 km/h 6.4 mph /  10.3 km/h 95 % 0.0 in /  0 mm
01:14 -2.0 °F /  -18.9 °C -2.7 °F /  -19.3 °C 1011.7 in /  34256.2 hPa West 1.4 mph /  2.3 km/h 8.0 mph /  12.9 km/h 95 % 0.0 in /  0 mm
01:20 -1.9 °F /  -18.8 °C -2.6 °F /  -19.2 °C 1011.7 in /  34256.2 hPa SW 1.4 mph /  2.3 km/h 3.2 mph /  5.1 km/h 95 % 0.0 in /  0 mm
01:26 -1.8 °F /  -18.8 °C -2.5 °F /  -19.2 °C 1011.7 in /  34256.2 hPa SW 3.2 mph /  5.1 km/h 6.4 mph /  10.3 km/h 95 % 0.0 in /  0 mm
01:32 -1.8 °F /  -18.8 °C -2.5 °F /  -19.2 °C 1011.7 in /  34256.2 hPa SSW 4.7 mph /  7.6 km/h 4.8 mph /  7.7 km/h 95 % 0.0 in /  0 mm
01:38 -2.0 °F /  -18.9 °C -2.8 °F /  -19.3 °C 1011.7 in /  34256.2 hPa SW 6.4 mph /  10.3 km/h 6.4 mph /  10.3 km/h 94 % 0.0 in /  0 mm
01:44 -2.1 °F /  -18.9 °C -2.8 °F /  -19.3 °C 1011.7 in /  34256.2 hPa SSW 3.2 mph /  5.1 km/h 4.8 mph /  7.7 km/h 95 % 0.0 in /  0 mm
01:50 -2.1 °F /  -18.9 °C -2.8 °F /  -19.3 °C 1011.7 in /  34256.2 hPa SSW 3.2 mph /  5.1 km/h 4.8 mph /  7.7 km/h 95 % 0.0 in /  0 mm
01:56 -2.0 °F /  -18.9 °C -2.7 °F /  -19.3 °C 1011.7 in /  34256.2 hPa SSW 1.4 mph /  2.3 km/h 3.2 mph /  5.1 km/h 95 % 0.0 in /  0 mm
02:02 -1.9 °F /  -18.8 °C -2.6 °F /  -19.2 °C 1011.7 in /  34256.2 hPa SSW 3.2 mph /  5.1 km/h 3.2 mph /  5.1 km/h 95 % 0.0 in /  0 mm
02:09 -1.9 °F /  -18.8 °C -2.5 °F /  -19.2 °C 1011.4 in /  34246 hPa SSW 3.2 mph /  5.1 km/h 4.8 mph /  7.7 km/h 96 % 0.0 in /  0 mm
02:15 -1.8 °F /  -18.8 °C -2.4 °F /  -19.1 °C 1011.4 in /  34246 hPa WSW 4.7 mph /  7.6 km/h 8.0 mph /  12.9 km/h 96 % 0.0 in /  0 mm
02:21 -1.7 °F /  -18.7 °C -2.3 °F /  -19.1 °C 1011.4 in /  34246 hPa WSW 3.2 mph /  5.1 km/h 4.8 mph /  7.7 km/h 96 % 0.0 in /  0 mm
02:27 -1.6 °F /  -18.7 °C -2.2 °F /  -19 °C 1011.4 in /  34246 hPa SW 4.7 mph /  7.6 km/h 6.4 mph /  10.3 km/h 96 % 0.0 in /  0 mm
02:33 -1.6 °F /  -18.7 °C -2.3 °F /  -19.1 °C 1011.7 in /  34256.2 hPa WSW 1.4 mph /  2.3 km/h 4.8 mph /  7.7 km/h 95 % 0.0 in /  0 mm
02:39 -1.5 °F /  -18.6 °C -2.2 °F /  -19 °C 1011.4 in /  34246 hPa SW 4.7 mph /  7.6 km/h 8.0 mph /  12.9 km/h 95 % 0.0 in /  0 mm
02:45 -1.4 °F /  -18.6 °C -2.1 °F /  -18.9 °C 1011.7 in /  34256.2 hPa WSW 3.2 mph /  5.1 km/h 4.8 mph /  7.7 km/h 95 % 0.0 in /  0 mm
02:51 -1.4 °F /  -18.6 °C -2.1 °F /  -18.9 °C 1011.7 in /  34256.2 hPa SW 6.4 mph /  10.3 km/h 6.4 mph /  10.3 km/h 95 % 0.0 in /  0 mm
02:57 -1.3 °F /  -18.5 °C -2.0 °F /  -18.9 °C 1011.7 in /  34256.2 hPa SW 4.7 mph /  7.6 km/h 6.4 mph /  10.3 km/h 95 % 0.0 in /  0 mm
03:03 -1.3 °F /  -18.5 °C -2.0 °F /  -18.9 °C 1011.4 in /  34246 hPa WSW 3.2 mph /  5.1 km/h 6.4 mph /  10.3 km/h 95 % 0.0 in /  0 mm
03:09 -1.3 °F /  -18.5 °C -2.0 °F /  -18.9 °C 1011.4 in /  34246 hPa WSW 3.2 mph /  5.1 km/h 4.8 mph /  7.7 km/h 95 % 0.0 in /  0 mm
03:15 -1.3 °F /  -18.5 °C -2.0 °F /  -18.9 °C 1011.4 in /  34246 hPa SW 3.2 mph /  5.1 km/h 8.0 mph /  12.9 km/h 95 % 0.0 in /  0 mm
03:21 -1.3 °F /  -18.5 °C -2.0 °F /  -18.9 °C 1011.4 in /  34246 hPa West 4.7 mph /  7.6 km/h 9.7 mph /  15.6 km/h 95 % 0.0 in /  0 mm
03:27 -1.3 °F /  -18.5 °C -2.0 °F /  -18.9 °C 1011.4 in /  34246 hPa SW 1.4 mph /  2.3 km/h 3.2 mph /  5.1 km/h 95 % 0.0 in /  0 mm
03:33 -1.3 °F /  -18.5 °C -2.0 °F /  -18.9 °C 1011.4 in /  34246 hPa Calm   4.8 mph /  7.7 km/h 95 % 0.0 in /  0 mm
03:39 -1.3 °F /  -18.5 °C -2.0 °F /  -18.9 °C 1011.4 in /  34246 hPa West 3.2 mph /  5.1 km/h 4.8 mph /  7.7 km/h 95 % 0.0 in /  0 mm
03:45 -1.3 °F /  -18.5 °C -2.0 °F /  -18.9 °C 1011.4 in /  34246 hPa SW 3.2 mph /  5.1 km/h 4.8 mph /  7.7 km/h 95 % 0.0 in /  0 mm
03:51 -1.4 °F /  -18.6 °C -2.1 °F /  -18.9 °C 1011.4 in /  34246 hPa SW 3.2 mph /  5.1 km/h 4.8 mph /  7.7 km/h 95 % 0.0 in /  0 mm
03:57 -1.4 °F /  -18.6 °C -2.1 °F /  -18.9 °C 1011.4 in /  34246 hPa SW 1.4 mph /  2.3 km/h 4.8 mph /  7.7 km/h 95 % 0.0 in /  0 mm
04:03 -1.4 °F /  -18.6 °C -2.1 °F /  -18.9 °C 1011.4 in /  34246 hPa SW 3.2 mph /  5.1 km/h 4.8 mph /  7.7 km/h 95 % 0.0 in /  0 mm
04:09 -1.4 °F /  -18.6 °C -2.1 °F /  -18.9 °C 1011.4 in /  34246 hPa SW 3.2 mph /  5.1 km/h 6.4 mph /  10.3 km/h 95 % 0.0 in /  0 mm
04:15 -1.4 °F /  -18.6 °C -2.1 °F /  -18.9 °C 1011.4 in /  34246 hPa West 1.4 mph /  2.3 km/h 3.2 mph /  5.1 km/h 95 % 0.0 in /  0 mm
04:21 -1.4 °F /  -18.6 °C -2.1 °F /  -18.9 °C 1011.4 in /  34246 hPa SW 1.4 mph /  2.3 km/h 4.8 mph /  7.7 km/h 95 % 0.0 in /  0 mm
04:27 -1.4 °F /  -18.6 °C -2.1 °F /  -18.9 °C 1011.4 in /  34246 hPa Calm   4.8 mph /  7.7 km/h 95 % 0.0 in /  0 mm
04:33 -1.5 °F /  -18.6 °C -2.2 °F /  -19 °C 1011.4 in /  34246 hPa WSW 9.7 mph /  15.6 km/h 9.7 mph /  15.6 km/h 95 % 0.0 in /  0 mm
04:39 -1.5 °F /  -18.6 °C -2.3 °F /  -19.1 °C 1011.4 in /  34246 hPa WSW 3.2 mph /  5.1 km/h 6.4 mph /  10.3 km/h 94 % 0.0 in /  0 mm
04:45 -1.6 °F /  -18.7 °C -2.4 °F /  -19.1 °C 1011.4 in /  34246 hPa West 1.4 mph /  2.3 km/h 6.4 mph /  10.3 km/h 94 % 0.0 in /  0 mm
04:51 -1.6 °F /  -18.7 °C -2.4 °F /  -19.1 °C 1011.4 in /  34246 hPa WSW 4.7 mph /  7.6 km/h 4.8 mph /  7.7 km/h 94 % 0.0 in /  0 mm
04:57 -1.6 °F /  -18.7 °C -2.4 °F /  -19.1 °C 1011.4 in /  34246 hPa West 1.4 mph /  2.3 km/h 3.2 mph /  5.1 km/h 94 % 0.0 in /  0 mm
05:03 -1.6 °F /  -18.7 °C -2.4 °F /  -19.1 °C 1011.4 in /  34246 hPa WSW 1.4 mph /  2.3 km/h 3.2 mph /  5.1 km/h 94 % 0.0 in /  0 mm
05:09 -1.6 °F /  -18.7 °C -2.4 °F /  -19.1 °C 1011.4 in /  34246 hPa Calm   3.2 mph /  5.1 km/h 94 % 0.0 in /  0 mm
05:15 -1.6 °F /  -18.7 °C -2.4 °F /  -19.1 °C 1011.4 in /  34246 hPa WSW 3.2 mph /  5.1 km/h 4.8 mph /  7.7 km/h 94 % 0.0 in /  0 mm
05:21 -1.6 °F /  -18.7 °C -2.4 °F /  -19.1 °C 1011.7 in /  34256.2 hPa WSW 1.4 mph /  2.3 km/h 3.2 mph /  5.1 km/h 94 % 0.0 in /  0 mm
05:27 -1.7 °F /  -18.7 °C -2.5 °F /  -19.2 °C 1011.7 in /  34256.2 hPa WSW 1.4 mph /  2.3 km/h 3.2 mph /  5.1 km/h 94 % 0.0 in /  0 mm
05:33 -1.7 °F /  -18.7 °C -2.5 °F /  -19.2 °C 1011.7 in /  34256.2 hPa SW 1.4 mph /  2.3 km/h 1.6 mph /  2.6 km/h 94 % 0.0 in /  0 mm
05:39 -1.7 °F /  -18.7 °C -2.4 °F /  -19.1 °C 1011.7 in /  34256.2 hPa Calm   3.2 mph /  5.1 km/h 95 % 0.0 in /  0 mm
05:45 -1.7 °F /  -18.7 °C -2.4 °F /  -19.1 °C 1011.7 in /  34256.2 hPa Calm   1.6 mph /  2.6 km/h 95 % 0.0 in /  0 mm
05:51 -1.7 °F /  -18.7 °C -2.4 °F /  -19.1 °C 1011.7 in /  34256.2 hPa Calm   1.6 mph /  2.6 km/h 95 % 0.0 in /  0 mm
05:57 -1.7 °F /  -18.7 °C -2.4 °F /  -19.1 °C 1011.7 in /  34256.2 hPa Calm   3.2 mph /  5.1 km/h 95 % 0.0 in /  0 mm
06:03 -1.7 °F /  -18.7 °C -2.4 °F /  -19.1 °C 1011.7 in /  34256.2 hPa SW 1.4 mph /  2.3 km/h 3.2 mph /  5.1 km/h 95 % 0.0 in /  0 mm
06:09 -1.7 °F /  -18.7 °C -2.4 °F /  -19.1 °C 1011.7 in /  34256.2 hPa SW 3.2 mph /  5.1 km/h 3.2 mph /  5.1 km/h 95 % 0.0 in /  0 mm
06:15 -1.7 °F /  -18.7 °C -2.4 °F /  -19.1 °C 1011.7 in /  34256.2 hPa SSW 3.2 mph /  5.1 km/h 3.2 mph /  5.1 km/h 95 % 0.0 in /  0 mm
06:21 -1.7 °F /  -18.7 °C -2.4 °F /  -19.1 °C 1011.7 in /  34256.2 hPa Calm   1.6 mph /  2.6 km/h 95 % 0.0 in /  0 mm
06:27 -1.8 °F /  -18.8 °C -2.5 °F /  -19.2 °C 1011.7 in /  34256.2 hPa SW 1.4 mph /  2.3 km/h 1.6 mph /  2.6 km/h 95 % 0.0 in /  0 mm
06:33 -1.8 °F /  -18.8 °C -2.5 °F /  -19.2 °C 1011.7 in /  34256.2 hPa Calm   1.6 mph /  2.6 km/h 95 % 0.0 in /  0 mm
06:39 -1.8 °F /  -18.8 °C -2.5 °F /  -19.2 °C 1011.7 in /  34256.2 hPa Calm     95 % 0.0 in /  0 mm
06:45 -1.8 °F /  -18.8 °C -2.5 °F /  -19.2 °C 1011.7 in /  34256.2 hPa Calm     95 % 0.0 in /  0 mm
06:51 -1.9 °F /  -18.8 °C -2.6 °F /  -19.2 °C 1011.7 in /  34256.2 hPa Calm   1.6 mph /  2.6 km/h 95 % 0.0 in /  0 mm
06:57 -1.9 °F /  -18.8 °C -2.6 °F /  -19.2 °C 1011.7 in /  34256.2 hPa Calm   1.6 mph /  2.6 km/h 95 % 0.0 in /  0 mm
07:03 -1.9 °F /  -18.8 °C -2.6 °F /  -19.2 °C 1011.7 in /  34256.2 hPa SW 1.4 mph /  2.3 km/h 1.6 mph /  2.6 km/h 95 % 0.0 in /  0 mm
07:09 -1.9 °F /  -18.8 °C -2.5 °F /  -19.2 °C 1011.7 in /  34256.2 hPa Calm   1.6 mph /  2.6 km/h 96 % 0.0 in /  0 mm
07:15 -1.8 °F /  -18.8 °C -2.4 °F /  -19.1 °C 1011.7 in /  34256.2 hPa Calm   1.6 mph /  2.6 km/h 96 % 0.0 in /  0 mm
07:21 -1.8 °F /  -18.8 °C -2.4 °F /  -19.1 °C 1012.1 in /  34269.7 hPa Calm     96 % 0.0 in /  0 mm
07:27 -1.9 °F /  -18.8 °C -2.5 °F /  -19.2 °C 1012.1 in /  34269.7 hPa Calm     96 % 0.0 in /  0 mm
07:33 -1.9 °F /  -18.8 °C -2.5 °F /  -19.2 °C 1012.1 in /  34269.7 hPa Calm     96 % 0.0 in /  0 mm
07:40 -1.9 °F /  -18.8 °C -2.5 °F /  -19.2 °C 1012.1 in /  34269.7 hPa Calm     96 % 0.0 in /  0 mm
07:46 -1.9 °F /  -18.8 °C -2.5 °F /  -19.2 °C 1012.1 in /  34269.7 hPa Calm     96 % 0.0 in /  0 mm
07:52 -1.9 °F /  -18.8 °C -2.5 °F /  -19.2 °C 1012.1 in /  34269.7 hPa Calm     96 % 0.0 in /  0 mm
07:58 -1.9 °F /  -18.8 °C -2.5 °F /  -19.2 °C 1012.1 in /  34269.7 hPa Calm     96 % 0.0 in /  0 mm
08:04 -1.9 °F /  -18.8 °C -2.5 °F /  -19.2 °C 1012.4 in /  34279.9 hPa Calm     96 % 0.0 in /  0 mm
08:10 -1.9 °F /  -18.8 °C -2.5 °F /  -19.2 °C 1012.4 in /  34279.9 hPa Calm     96 % 0.0 in /  0 mm
08:16 -1.9 °F /  -18.8 °C -2.5 °F /  -19.2 °C 1012.4 in /  34279.9 hPa Calm     96 % 0.0 in /  0 mm
08:22 -1.9 °F /  -18.8 °C -2.5 °F /  -19.2 °C 1012.8 in /  34293.4 hPa Calm     96 % 0.0 in /  0 mm
08:28 -1.9 °F /  -18.8 °C -2.5 °F /  -19.2 °C 1012.4 in /  34279.9 hPa Calm     96 % 0.0 in /  0 mm
08:34 -1.8 °F /  -18.8 °C -2.4 °F /  -19.1 °C 1012.8 in /  34293.4 hPa Calm     96 % 0.0 in /  0 mm
08:40 -1.8 °F /  -18.8 °C -2.4 °F /  -19.1 °C 1012.8 in /  34293.4 hPa Calm     96 % 0.0 in /  0 mm
08:46 -1.8 °F /  -18.8 °C -2.4 °F /  -19.1 °C 1012.8 in /  34293.4 hPa Calm     96 % 0.0 in /  0 mm
08:52 -1.8 °F /  -18.8 °C -2.4 °F /  -19.1 °C 1012.8 in /  34293.4 hPa Calm     96 % 0.0 in /  0 mm
08:58 -1.8 °F /  -18.8 °C -2.4 °F /  -19.1 °C 1012.8 in /  34293.4 hPa Calm     96 % 0.0 in /  0 mm
09:04 -1.8 °F /  -18.8 °C -2.4 °F /  -19.1 °C 1012.8 in /  34293.4 hPa Calm     96 % 0.0 in /  0 mm
09:10 -1.8 °F /  -18.8 °C -2.4 °F /  -19.1 °C 1013.1 in /  34303.6 hPa Calm     96 % 0.0 in /  0 mm
09:16 -1.7 °F /  -18.7 °C -2.3 °F /  -19.1 °C 1013.1 in /  34303.6 hPa Calm     96 % 0.0 in /  0 mm
09:22 -1.8 °F /  -18.8 °C -2.4 °F /  -19.1 °C 1013.1 in /  34303.6 hPa Calm     96 % 0.0 in /  0 mm
09:28 -1.7 °F /  -18.7 °C -2.3 °F /  -19.1 °C 1013.4 in /  34313.7 hPa Calm     96 % 0.0 in /  0 mm
09:35 -1.7 °F /  -18.7 °C -2.3 °F /  -19.1 °C 1013.4 in /  34313.7 hPa Calm     96 % 0.0 in /  0 mm
09:41 -1.7 °F /  -18.7 °C -2.3 °F /  -19.1 °C 1013.4 in /  34313.7 hPa Calm     96 % 0.0 in /  0 mm
09:47 -1.7 °F /  -18.7 °C -2.3 °F /  -19.1 °C 1013.4 in /  34313.7 hPa Calm     96 % 0.0 in /  0 mm
09:53 -1.6 °F /  -18.7 °C -2.2 °F /  -19 °C 1013.4 in /  34313.7 hPa Calm     96 % 0.0 in /  0 mm
09:59 -1.6 °F /  -18.7 °C -2.2 °F /  -19 °C 1013.8 in /  34327.3 hPa Calm     96 % 0.0 in /  0 mm
10:05 -1.6 °F /  -18.7 °C -2.3 °F /  -19.1 °C 1013.8 in /  34327.3 hPa Calm     95 % 0.0 in /  0 mm
10:11 -1.5 °F /  -18.6 °C -2.2 °F /  -19 °C 1013.8 in /  34327.3 hPa Calm     95 % 0.0 in /  0 mm
10:17 -1.5 °F /  -18.6 °C -2.2 °F /  -19 °C 1013.8 in /  34327.3 hPa Calm     95 % 0.0 in /  0 mm
10:23 -1.4 °F /  -18.6 °C -2.1 °F /  -18.9 °C 1013.8 in /  34327.3 hPa Calm     95 % 0.0 in /  0 mm
10:29 -1.3 °F /  -18.5 °C -2.0 °F /  -18.9 °C 1014.1 in /  34337.4 hPa Calm     95 % 0.0 in /  0 mm
10:35 -1.3 °F /  -18.5 °C -2.0 °F /  -18.9 °C 1014.1 in /  34337.4 hPa Calm     95 % 0.0 in /  0 mm
10:41 -1.3 °F /  -18.5 °C -2.0 °F /  -18.9 °C 1014.1 in /  34337.4 hPa Calm     95 % 0.0 in /  0 mm
10:47 -1.2 °F /  -18.4 °C -1.9 °F /  -18.8 °C 1014.1 in /  34337.4 hPa Calm     95 % 0.0 in /  0 mm
10:53 -1.2 °F /  -18.4 °C -1.9 °F /  -18.8 °C 1014.1 in /  34337.4 hPa Calm     95 % 0.0 in /  0 mm
10:59 -1.1 °F /  -18.4 °C -1.8 °F /  -18.8 °C 1014.4 in /  34347.6 hPa Calm     95 % 0.0 in /  0 mm
11:05 -0.9 °F /  -18.3 °C -1.6 °F /  -18.7 °C 1014.4 in /  34347.6 hPa Calm     95 % 0.0 in /  0 mm
11:11 -0.9 °F /  -18.3 °C -1.7 °F /  -18.7 °C 1014.4 in /  34347.6 hPa Calm     94 % 0.0 in /  0 mm
11:17 -0.9 °F /  -18.3 °C -1.7 °F /  -18.7 °C 1014.4 in /  34347.6 hPa Calm     94 % 0.0 in /  0 mm
11:23 -0.9 °F /  -18.3 °C -1.7 °F /  -18.7 °C 1014.4 in /  34347.6 hPa Calm     94 % 0.0 in /  0 mm
11:29 -0.9 °F /  -18.3 °C -1.7 °F /  -18.7 °C 1014.4 in /  34347.6 hPa Calm     94 % 0.0 in /  0 mm
11:35 -1.0 °F /  -18.3 °C -1.8 °F /  -18.8 °C 1014.8 in /  34361.1 hPa Calm     94 % 0.0 in /  0 mm
11:42 -0.9 °F /  -18.3 °C -1.7 °F /  -18.7 °C 1014.8 in /  34361.1 hPa Calm     94 % 0.0 in /  0 mm
11:48 -0.8 °F /  -18.2 °C -1.6 °F /  -18.7 °C 1014.8 in /  34361.1 hPa Calm     94 % 0.0 in /  0 mm
11:54 -0.8 °F /  -18.2 °C -1.6 °F /  -18.7 °C 1014.8 in /  34361.1 hPa Calm     94 % 0.0 in /  0 mm
12:00 -0.8 °F /  -18.2 °C -1.6 °F /  -18.7 °C 1015.1 in /  34371.3 hPa Calm     94 % 0.0 in /  0 mm
12:06 -0.7 °F /  -18.2 °C -1.5 °F /  -18.6 °C 1015.1 in /  34371.3 hPa Calm     94 % 0.0 in /  0 mm
12:12 -0.7 °F /  -18.2 °C -1.7 °F /  -18.7 °C 1015.1 in /  34371.3 hPa Calm     93 % 0.0 in /  0 mm
12:18 -0.7 °F /  -18.2 °C -1.7 °F /  -18.7 °C 1015.1 in /  34371.3 hPa Calm     93 % 0.0 in /  0 mm
12:24 -0.6 °F /  -18.1 °C -1.7 °F /  -18.7 °C 1015.1 in /  34371.3 hPa Calm     92 % 0.0 in /  0 mm
12:30 -0.6 °F /  -18.1 °C -1.7 °F /  -18.7 °C 1015.1 in /  34371.3 hPa Calm     92 % 0.0 in /  0 mm
12:36 -0.7 °F /  -18.2 °C -1.8 °F /  -18.8 °C 1015.1 in /  34371.3 hPa Calm     92 % 0.0 in /  0 mm
12:42 -0.7 °F /  -18.2 °C -1.8 °F /  -18.8 °C 1015.1 in /  34371.3 hPa Calm     92 % 0.0 in /  0 mm
12:48 -0.7 °F /  -18.2 °C -1.8 °F /  -18.8 °C 1015.1 in /  34371.3 hPa Calm     92 % 0.0 in /  0 mm
12:54 -0.7 °F /  -18.2 °C -1.8 °F /  -18.8 °C 1015.1 in /  34371.3 hPa Calm     92 % 0.0 in /  0 mm
13:00 -0.7 °F /  -18.2 °C -1.8 °F /  -18.8 °C 1015.1 in /  34371.3 hPa Calm   1.6 mph /  2.6 km/h 92 % 0.0 in /  0 mm
13:06 -0.7 °F /  -18.2 °C -1.8 °F /  -18.8 °C 1015.1 in /  34371.3 hPa Calm   1.6 mph /  2.6 km/h 92 % 0.0 in /  0 mm
13:12 -0.7 °F /  -18.2 °C -1.8 °F /  -18.8 °C 1015.1 in /  34371.3 hPa WNW 1.4 mph /  2.3 km/h 1.6 mph /  2.6 km/h 92 % 0.0 in /  0 mm
13:18 -0.6 °F /  -18.1 °C -1.7 °F /  -18.7 °C 1015.1 in /  34371.3 hPa Calm   1.6 mph /  2.6 km/h 92 % 0.0 in /  0 mm
13:24 -0.5 °F /  -18.1 °C -1.6 °F /  -18.7 °C 1015.1 in /  34371.3 hPa Calm     92 % 0.0 in /  0 mm
13:31 -0.4 °F /  -18 °C -1.5 °F /  -18.6 °C 1015.1 in /  34371.3 hPa WNW 1.4 mph /  2.3 km/h 1.6 mph /  2.6 km/h 92 % 0.0 in /  0 mm
13:37 -0.6 °F /  -18.1 °C -1.9 °F /  -18.8 °C 1015.1 in /  34371.3 hPa WNW 1.4 mph /  2.3 km/h 1.6 mph /  2.6 km/h 91 % 0.0 in /  0 mm
13:43 -0.5 °F /  -18.1 °C -1.8 °F /  -18.8 °C 1015.1 in /  34371.3 hPa Calm   1.6 mph /  2.6 km/h 91 % 0.0 in /  0 mm
13:49 -0.4 °F /  -18 °C -1.5 °F /  -18.6 °C 1015.1 in /  34371.3 hPa Calm   3.2 mph /  5.1 km/h 92 % 0.0 in /  0 mm
13:55 -0.4 °F /  -18 °C -1.5 °F /  -18.6 °C 1015.1 in /  34371.3 hPa Calm   1.6 mph /  2.6 km/h 92 % 0.0 in /  0 mm
14:01 -0.3 °F /  -17.9 °C -1.4 °F /  -18.6 °C 1015.5 in /  34384.8 hPa Calm   1.6 mph /  2.6 km/h 92 % 0.0 in /  0 mm
14:07 -0.3 °F /  -17.9 °C -1.6 °F /  -18.7 °C 1015.5 in /  34384.8 hPa North 1.4 mph /  2.3 km/h 3.2 mph /  5.1 km/h 91 % 0.0 in /  0 mm
14:13 -0.4 °F /  -18 °C -1.7 °F /  -18.7 °C 1015.5 in /  34384.8 hPa Calm   3.2 mph /  5.1 km/h 91 % 0.0 in /  0 mm
14:19 -0.3 °F /  -17.9 °C -1.6 °F /  -18.7 °C 1015.1 in /  34371.3 hPa North 1.4 mph /  2.3 km/h 3.2 mph /  5.1 km/h 91 % 0.0 in /  0 mm
14:25 -0.3 °F /  -17.9 °C -1.6 °F /  -18.7 °C 1015.5 in /  34384.8 hPa North 1.4 mph /  2.3 km/h 3.2 mph /  5.1 km/h 91 % 0.0 in /  0 mm
14:31 -0.3 °F /  -17.9 °C -1.6 °F /  -18.7 °C 1015.5 in /  34384.8 hPa Calm   1.6 mph /  2.6 km/h 91 % 0.0 in /  0 mm
14:37 -0.2 °F /  -17.9 °C -1.5 °F /  -18.6 °C 1015.5 in /  34384.8 hPa Calm   1.6 mph /  2.6 km/h 91 % 0.0 in /  0 mm
14:43 -0.2 °F /  -17.9 °C -1.5 °F /  -18.6 °C 1015.5 in /  34384.8 hPa Calm   1.6 mph /  2.6 km/h 91 % 0.0 in /  0 mm
14:49 -0.1 °F /  -17.8 °C -1.4 °F /  -18.6 °C 1015.5 in /  34384.8 hPa Calm     91 % 0.0 in /  0 mm
14:55 0.1 °F /  -17.7 °C -1.2 °F /  -18.4 °C 1015.5 in /  34384.8 hPa North 3.2 mph /  5.1 km/h 4.8 mph /  7.7 km/h 91 % 0.0 in /  0 mm
15:01 -0.1 °F /  -17.8 °C -1.7 °F /  -18.7 °C 1015.5 in /  34384.8 hPa Calm   3.2 mph /  5.1 km/h 89 % 0.0 in /  0 mm
15:07 -0.2 °F /  -17.9 °C -1.8 °F /  -18.8 °C 1015.5 in /  34384.8 hPa North 3.2 mph /  5.1 km/h 3.2 mph /  5.1 km/h 89 % 0.0 in /  0 mm
15:13 -0.2 °F /  -17.9 °C -1.6 °F /  -18.7 °C 1015.8 in /  34395 hPa Calm   3.2 mph /  5.1 km/h 90 % 0.0 in /  0 mm
15:19 -0.3 °F /  -17.9 °C -1.7 °F /  -18.7 °C 1015.5 in /  34384.8 hPa NNE 1.4 mph /  2.3 km/h 1.6 mph /  2.6 km/h 90 % 0.0 in /  0 mm
15:25 -0.3 °F /  -17.9 °C -1.7 °F /  -18.7 °C 1015.8 in /  34395 hPa Calm   1.6 mph /  2.6 km/h 90 % 0.0 in /  0 mm
15:31 -0.2 °F /  -17.9 °C -1.6 °F /  -18.7 °C 1015.8 in /  34395 hPa NNE 1.4 mph /  2.3 km/h 3.2 mph /  5.1 km/h 90 % 0.0 in /  0 mm
15:37 -0.2 °F /  -17.9 °C -1.6 °F /  -18.7 °C 1015.8 in /  34395 hPa Calm   3.2 mph /  5.1 km/h 90 % 0.0 in /  0 mm
15:43 -0.2 °F /  -17.9 °C -1.6 °F /  -18.7 °C 1015.8 in /  34395 hPa NNE 1.4 mph /  2.3 km/h 4.8 mph /  7.7 km/h 90 % 0.0 in /  0 mm
15:49 -0.3 °F /  -17.9 °C -1.7 °F /  -18.7 °C 1015.8 in /  34395 hPa NNE 1.4 mph /  2.3 km/h 4.8 mph /  7.7 km/h 90 % 0.0 in /  0 mm
15:55 -0.4 °F /  -18 °C -1.8 °F /  -18.8 °C 1015.8 in /  34395 hPa NNE 1.4 mph /  2.3 km/h 4.8 mph /  7.7 km/h 90 % 0.0 in /  0 mm
16:01 -0.4 °F /  -18 °C -1.7 °F /  -18.7 °C 1016.1 in /  34405.1 hPa NNE 1.4 mph /  2.3 km/h 4.8 mph /  7.7 km/h 91 % 0.0 in /  0 mm
16:07 -0.4 °F /  -18 °C -1.7 °F /  -18.7 °C 1016.1 in /  34405.1 hPa Calm   6.4 mph /  10.3 km/h 91 % 0.0 in /  0 mm
16:13 -0.5 °F /  -18.1 °C -1.6 °F /  -18.7 °C 1016.1 in /  34405.1 hPa North 6.4 mph /  10.3 km/h 8.0 mph /  12.9 km/h 92 % 0.0 in /  0 mm
16:19 -0.7 °F /  -18.2 °C -1.8 °F /  -18.8 °C 1016.1 in /  34405.1 hPa North 1.4 mph /  2.3 km/h 4.8 mph /  7.7 km/h 92 % 0.0 in /  0 mm
16:25 -0.7 °F /  -18.2 °C -1.7 °F /  -18.7 °C 1016.1 in /  34405.1 hPa North 3.2 mph /  5.1 km/h 4.8 mph /  7.7 km/h 93 % 0.0 in /  0 mm
16:31 -0.7 °F /  -18.2 °C -1.7 °F /  -18.7 °C 1016.1 in /  34405.1 hPa Calm   3.2 mph /  5.1 km/h 93 % 0.0 in /  0 mm
16:37 -0.8 °F /  -18.2 °C -1.8 °F /  -18.8 °C 1016.1 in /  34405.1 hPa Calm   4.8 mph /  7.7 km/h 93 % 0.0 in /  0 mm
16:43 -0.8 °F /  -18.2 °C -1.6 °F /  -18.7 °C 1016.5 in /  34418.7 hPa North 1.4 mph /  2.3 km/h 6.4 mph /  10.3 km/h 94 % 0.0 in /  0 mm
16:49 -0.8 °F /  -18.2 °C -1.6 °F /  -18.7 °C 1016.5 in /  34418.7 hPa North 4.7 mph /  7.6 km/h 6.4 mph /  10.3 km/h 94 % 0.0 in /  0 mm
16:55 -0.8 °F /  -18.2 °C -1.6 °F /  -18.7 °C 1016.5 in /  34418.7 hPa North 1.4 mph /  2.3 km/h 3.2 mph /  5.1 km/h 94 % 0.0 in /  0 mm
17:01 -0.8 °F /  -18.2 °C -1.6 °F /  -18.7 °C 1016.5 in /  34418.7 hPa North 1.4 mph /  2.3 km/h 3.2 mph /  5.1 km/h 94 % 0.0 in /  0 mm
17:07 -0.8 °F /  -18.2 °C -1.6 °F /  -18.7 °C 1016.5 in /  34418.7 hPa Calm   3.2 mph /  5.1 km/h 94 % 0.0 in /  0 mm
17:13 -0.9 °F /  -18.3 °C -1.7 °F /  -18.7 °C 1016.5 in /  34418.7 hPa Calm   3.2 mph /  5.1 km/h 94 % 0.0 in /  0 mm
17:19 -1.0 °F /  -18.3 °C -1.8 °F /  -18.8 °C 1016.8 in /  34428.8 hPa Calm   3.2 mph /  5.1 km/h 94 % 0.0 in /  0 mm
17:25 -1.1 °F /  -18.4 °C -1.9 °F /  -18.8 °C 1016.8 in /  34428.8 hPa Calm   3.2 mph /  5.1 km/h 94 % 0.0 in /  0 mm
17:31 -1.1 °F /  -18.4 °C -1.9 °F /  -18.8 °C 1016.8 in /  34428.8 hPa North 1.4 mph /  2.3 km/h 3.2 mph /  5.1 km/h 94 % 0.0 in /  0 mm
17:37 -1.1 °F /  -18.4 °C -1.8 °F /  -18.8 °C 1016.8 in /  34428.8 hPa Calm   1.6 mph /  2.6 km/h 95 % 0.0 in /  0 mm
17:43 -1.2 °F /  -18.4 °C -1.9 °F /  -18.8 °C 1016.8 in /  34428.8 hPa Calm   1.6 mph /  2.6 km/h 95 % 0.0 in /  0 mm
17:49 -1.2 °F /  -18.4 °C -1.9 °F /  -18.8 °C 1016.8 in /  34428.8 hPa Calm   1.6 mph /  2.6 km/h 95 % 0.0 in /  0 mm
17:55 -1.2 °F /  -18.4 °C -1.9 °F /  -18.8 °C 1017.2 in /  34442.4 hPa Calm   1.6 mph /  2.6 km/h 95 % 0.0 in /  0 mm
18:01 -1.2 °F /  -18.4 °C -1.9 °F /  -18.8 °C 1017.2 in /  34442.4 hPa Calm   1.6 mph /  2.6 km/h 95 % 0.0 in /  0 mm
18:07 -1.2 °F /  -18.4 °C -1.9 °F /  -18.8 °C 1017.2 in /  34442.4 hPa Calm   1.6 mph /  2.6 km/h 95 % 0.0 in /  0 mm
18:13 -1.2 °F /  -18.4 °C -1.9 °F /  -18.8 °C 1017.2 in /  34442.4 hPa Calm   1.6 mph /  2.6 km/h 95 % 0.0 in /  0 mm
18:20 -1.2 °F /  -18.4 °C -1.9 °F /  -18.8 °C 1017.2 in /  34442.4 hPa Calm   1.6 mph /  2.6 km/h 95 % 0.0 in /  0 mm
18:26 -1.2 °F /  -18.4 °C -1.8 °F /  -18.8 °C 1017.2 in /  34442.4 hPa Calm     96 % 0.0 in /  0 mm
18:32 -1.2 °F /  -18.4 °C -1.8 °F /  -18.8 °C 1017.5 in /  34452.6 hPa Calm   1.6 mph /  2.6 km/h 96 % 0.0 in /  0 mm
18:38 -1.2 °F /  -18.4 °C -1.8 °F /  -18.8 °C 1017.5 in /  34452.6 hPa Calm     96 % 0.0 in /  0 mm
18:44 -1.2 °F /  -18.4 °C -1.8 °F /  -18.8 °C 1017.5 in /  34452.6 hPa Calm     96 % 0.0 in /  0 mm
18:50 -1.2 °F /  -18.4 °C -1.8 °F /  -18.8 °C 1017.5 in /  34452.6 hPa Calm     96 % 0.0 in /  0 mm
18:56 -1.2 °F /  -18.4 °C -1.8 °F /  -18.8 °C 1017.5 in /  34452.6 hPa Calm     96 % 0.0 in /  0 mm
19:02 -1.3 °F /  -18.5 °C -1.9 °F /  -18.8 °C 1017.5 in /  34452.6 hPa Calm     96 % 0.0 in /  0 mm
19:04 -1.2 °F /  -18.4 °C -1.8 °F /  -18.8 °C 1017.5 in /  34452.6 hPa Calm     96 % 0.0 in /  0 mm
19:10 -1.3 °F /  -18.5 °C -1.9 °F /  -18.8 °C 1017.5 in /  34452.6 hPa Calm     96 % 0.0 in /  0 mm
19:16 -1.3 °F /  -18.5 °C -1.9 °F /  -18.8 °C 1017.5 in /  34452.6 hPa Calm     96 % 0.0 in /  0 mm
19:22 -1.3 °F /  -18.5 °C -1.9 °F /  -18.8 °C 1017.5 in /  34452.6 hPa Calm     96 % 0.0 in /  0 mm
19:28 -1.3 °F /  -18.5 °C -1.9 °F /  -18.8 °C 1017.8 in /  34462.7 hPa Calm     96 % 0.0 in /  0 mm
19:34 -1.3 °F /  -18.5 °C -1.9 °F /  -18.8 °C 1017.8 in /  34462.7 hPa Calm     96 % 0.0 in /  0 mm
19:40 -1.3 °F /  -18.5 °C -1.9 °F /  -18.8 °C 1017.8 in /  34462.7 hPa Calm     96 % 0.0 in /  0 mm
19:46 -1.3 °F /  -18.5 °C -1.9 °F /  -18.8 °C 1017.8 in /  34462.7 hPa Calm     96 % 0.0 in /  0 mm
19:52 -1.3 °F /  -18.5 °C -1.9 °F /  -18.8 °C 1017.8 in /  34462.7 hPa Calm     96 % 0.0 in /  0 mm
19:59 -1.3 °F /  -18.5 °C -1.9 °F /  -18.8 °C 1017.8 in /  34462.7 hPa Calm     96 % 0.0 in /  0 mm
20:05 -1.3 °F /  -18.5 °C -1.9 °F /  -18.8 °C 1017.8 in /  34462.7 hPa Calm   1.6 mph /  2.6 km/h 96 % 0.0 in /  0 mm
20:11 -1.2 °F /  -18.4 °C -1.8 °F /  -18.8 °C 1018.2 in /  34476.3 hPa Calm   1.6 mph /  2.6 km/h 96 % 0.0 in /  0 mm
20:17 -1.2 °F /  -18.4 °C -1.8 °F /  -18.8 °C 1018.2 in /  34476.3 hPa Calm     96 % 0.0 in /  0 mm
20:23 -1.2 °F /  -18.4 °C -1.8 °F /  -18.8 °C 1018.2 in /  34476.3 hPa Calm   1.6 mph /  2.6 km/h 96 % 0.0 in /  0 mm
20:29 -1.1 °F /  -18.4 °C -1.7 °F /  -18.7 °C 1018.2 in /  34476.3 hPa Calm   1.6 mph /  2.6 km/h 96 % 0.0 in /  0 mm
20:35 -1.1 °F /  -18.4 °C -1.7 °F /  -18.7 °C 1018.2 in /  34476.3 hPa Calm   1.6 mph /  2.6 km/h 96 % 0.0 in /  0 mm
20:41 -1.1 °F /  -18.4 °C -1.7 °F /  -18.7 °C 1018.2 in /  34476.3 hPa Calm   1.6 mph /  2.6 km/h 96 % 0.0 in /  0 mm
20:47 -1.0 °F /  -18.3 °C -1.6 °F /  -18.7 °C 1018.5 in /  34486.4 hPa North 1.4 mph /  2.3 km/h 6.4 mph /  10.3 km/h 96 % 0.0 in /  0 mm
20:53 -0.9 °F /  -18.3 °C -1.5 °F /  -18.6 °C 1018.5 in /  34486.4 hPa Calm   4.8 mph /  7.7 km/h 96 % 0.0 in /  0 mm
20:59 -0.9 °F /  -18.3 °C -1.5 °F /  -18.6 °C 1018.5 in /  34486.4 hPa North 1.4 mph /  2.3 km/h 4.8 mph /  7.7 km/h 96 % 0.0 in /  0 mm
21:05 -0.9 °F /  -18.3 °C -1.5 °F /  -18.6 °C 1018.8 in /  34496.6 hPa North 4.7 mph /  7.6 km/h 6.4 mph /  10.3 km/h 96 % 0.0 in /  0 mm
21:11 -1.0 °F /  -18.3 °C -1.7 °F /  -18.7 °C 1018.8 in /  34496.6 hPa North 1.4 mph /  2.3 km/h 8.0 mph /  12.9 km/h 95 % 0.0 in /  0 mm
21:17 -1.0 °F /  -18.3 °C -1.7 °F /  -18.7 °C 1018.8 in /  34496.6 hPa North 1.4 mph /  2.3 km/h 4.8 mph /  7.7 km/h 95 % 0.0 in /  0 mm
21:23 -1.0 °F /  -18.3 °C -1.7 °F /  -18.7 °C 1018.8 in /  34496.6 hPa North 3.2 mph /  5.1 km/h 6.4 mph /  10.3 km/h 95 % 0.0 in /  0 mm
21:29 -1.1 °F /  -18.4 °C -1.8 °F /  -18.8 °C 1018.8 in /  34496.6 hPa North 4.7 mph /  7.6 km/h 6.4 mph /  10.3 km/h 95 % 0.0 in /  0 mm
21:35 -1.1 °F /  -18.4 °C -1.8 °F /  -18.8 °C 1018.8 in /  34496.6 hPa North 1.4 mph /  2.3 km/h 6.4 mph /  10.3 km/h 95 % 0.0 in /  0 mm
21:41 -1.1 °F /  -18.4 °C -1.8 °F /  -18.8 °C 1018.8 in /  34496.6 hPa Calm   3.2 mph /  5.1 km/h 95 % 0.0 in /  0 mm
21:47 -1.1 °F /  -18.4 °C -1.8 °F /  -18.8 °C 1018.8 in /  34496.6 hPa North 1.4 mph /  2.3 km/h 3.2 mph /  5.1 km/h 95 % 0.0 in /  0 mm
21:53 -1.1 °F /  -18.4 °C -1.8 °F /  -18.8 °C 1018.8 in /  34496.6 hPa North 1.4 mph /  2.3 km/h 3.2 mph /  5.1 km/h 95 % 0.0 in /  0 mm
21:59 -1.2 °F /  -18.4 °C -1.9 °F /  -18.8 °C 1018.8 in /  34496.6 hPa North 3.2 mph /  5.1 km/h 4.8 mph /  7.7 km/h 95 % 0.0 in /  0 mm
22:05 -1.2 °F /  -18.4 °C -1.9 °F /  -18.8 °C 1018.8 in /  34496.6 hPa Calm   6.4 mph /  10.3 km/h 95 % 0.0 in /  0 mm
22:11 -1.2 °F /  -18.4 °C -1.9 °F /  -18.8 °C 1018.8 in /  34496.6 hPa North 3.2 mph /  5.1 km/h 3.2 mph /  5.1 km/h 95 % 0.0 in /  0 mm
22:19 -1.2 °F /  -18.4 °C -1.9 °F /  -18.8 °C 1018.8 in /  34496.6 hPa Calm   4.8 mph /  7.7 km/h 95 % 0.0 in /  0 mm
22:26 -1.3 °F /  -18.5 °C -2.0 °F /  -18.9 °C 1018.8 in /  34496.6 hPa Calm   4.8 mph /  7.7 km/h 95 % 0.0 in /  0 mm
22:31 -1.3 °F /  -18.5 °C -2.0 °F /  -18.9 °C 1018.8 in /  34496.6 hPa Calm   4.8 mph /  7.7 km/h 95 % 0.0 in /  0 mm
22:38 -1.3 °F /  -18.5 °C -2.0 °F /  -18.9 °C 1018.8 in /  34496.6 hPa Calm   4.8 mph /  7.7 km/h 95 % 0.0 in /  0 mm
22:44 -1.3 °F /  -18.5 °C -2.0 °F /  -18.9 °C 1018.8 in /  34496.6 hPa North 3.2 mph /  5.1 km/h 4.8 mph /  7.7 km/h 95 % 0.0 in /  0 mm
22:50 -1.3 °F /  -18.5 °C -2.0 °F /  -18.9 °C 1018.8 in /  34496.6 hPa Calm   1.6 mph /  2.6 km/h 95 % 0.0 in /  0 mm
22:56 -1.3 °F /  -18.5 °C -2.0 °F /  -18.9 °C 1018.8 in /  34496.6 hPa Calm   3.2 mph /  5.1 km/h 95 % 0.0 in /  0 mm
23:02 -1.3 °F /  -18.5 °C -2.0 °F /  -18.9 °C 1018.8 in /  34496.6 hPa North 1.4 mph /  2.3 km/h 3.2 mph /  5.1 km/h 95 % 0.0 in /  0 mm
23:08 -1.3 °F /  -18.5 °C -2.0 °F /  -18.9 °C 1018.8 in /  34496.6 hPa Calm   4.8 mph /  7.7 km/h 95 % 0.0 in /  0 mm
23:14 -1.4 °F /  -18.6 °C -2.1 °F /  -18.9 °C 1018.8 in /  34496.6 hPa North 4.7 mph /  7.6 km/h 9.7 mph /  15.6 km/h 95 % 0.0 in /  0 mm
23:20 -1.4 °F /  -18.6 °C -2.1 °F /  -18.9 °C 1018.8 in /  34496.6 hPa North 3.2 mph /  5.1 km/h 8.0 mph /  12.9 km/h 95 % 0.0 in /  0 mm
23:26 -1.4 °F /  -18.6 °C -2.1 °F /  -18.9 °C 1018.8 in /  34496.6 hPa Calm   6.4 mph /  10.3 km/h 95 % 0.0 in /  0 mm
23:32 -1.4 °F /  -18.6 °C -2.1 °F /  -18.9 °C 1019.2 in /  34510.1 hPa North 3.2 mph /  5.1 km/h 6.4 mph /  10.3 km/h 95 % 0.0 in /  0 mm
23:38 -1.4 °F /  -18.6 °C -2.1 °F /  -18.9 °C 1019.2 in /  34510.1 hPa Calm   4.8 mph /  7.7 km/h 95 % 0.0 in /  0 mm
23:44 -1.4 °F /  -18.6 °C -2.1 °F /  -18.9 °C 1019.2 in /  34510.1 hPa North 1.4 mph /  2.3 km/h 4.8 mph /  7.7 km/h 95 % 0.0 in /  0 mm
23:50 -1.4 °F /  -18.6 °C -2.1 °F /  -18.9 °C 1019.2 in /  34510.1 hPa Calm   3.2 mph /  5.1 km/h 95 % 0.0 in /  0 mm
23:56 -1.5 °F /  -18.6 °C -2.2 °F /  -19 °C 1019.2 in /  34510.1 hPa North 1.4 mph /  2.3 km/h 4.8 mph /  7.7 km/h 95 % 0.0 in /  0 mm
Meteo18
Compliments of Weather Underground - 4 mb

Script developed by  Jim McMurry - jmcmurry@mwt.net Adapted for the template by  Wim van der Kuil - Leuven-Template.eu

You find our weather info also at:

European Weather Network

Weather Underground

Equipment we use:

Weather-station
Davis Vue

Weather-program
Meteobridge

Weather-server
Raspberry PI 2 B+

Provider
1 and 1

Davis Vue

Meteobridge

Raspberry PI 2 B+

1 and 1